createdAt,value
2022-11-26T00:01:51.058Z,514.63
2022-11-26T00:03:53.343Z,537.58
2022-11-26T00:05:57.343Z,562.95
2022-11-26T00:08:00.473Z,560.22
2022-11-26T00:10:02.493Z,533.40
2022-11-26T00:12:36.445Z,512.83
2022-11-26T00:14:38.192Z,506.77
2022-11-26T00:16:39.830Z,519.17
2022-11-26T00:18:42.506Z,514.05
2022-11-26T00:20:45.721Z,536.67
2022-11-26T00:22:51.434Z,550.05
2022-11-26T00:24:53.662Z,515.63
2022-11-26T00:26:57.641Z,546.13
2022-11-26T00:29:00.627Z,556.83
2022-11-26T00:31:11.521Z,549.05
2022-11-26T00:33:12.974Z,570.55
2022-11-26T00:35:15.233Z,525.45
2022-11-26T00:37:22.941Z,536.03
2022-11-26T00:39:24.629Z,512.22
2022-11-26T00:41:31.677Z,493.65
2022-11-26T00:43:33.223Z,473.98
2022-11-26T00:45:34.831Z,460.40
2022-11-26T00:47:36.268Z,441.17
2022-11-26T00:49:38.080Z,530.75
2022-11-26T00:51:40.022Z,556.60
2022-11-26T00:53:42.390Z,566.63
2022-11-26T00:55:49.360Z,600.80
2022-11-26T00:57:50.834Z,599.33
2022-11-26T00:59:52.366Z,625.70
2022-11-26T01:01:53.919Z,564.28
2022-11-26T01:03:55.509Z,666.40
2022-11-26T01:05:58.788Z,552.42
2022-11-26T01:08:06.466Z,489.25
2022-11-26T01:10:19.689Z,444.70
2022-11-26T01:12:21.130Z,413.67
2022-11-26T01:14:23.355Z,418.75
2022-11-26T01:16:28.127Z,439.30
2022-11-26T01:18:34.871Z,379.30
2022-11-26T01:20:36.288Z,369.27
2022-11-26T01:22:37.718Z,363.70
2022-11-26T01:24:39.384Z,358.95
2022-11-26T01:26:43.837Z,362.90
2022-11-26T01:28:45.882Z,399.55
2022-11-26T01:30:47.384Z,410.73
2022-11-26T01:32:49.539Z,392.38
2022-11-26T01:34:50.972Z,537.80
2022-11-26T01:36:52.461Z,716.75
2022-11-26T01:38:55.306Z,611.10
2022-11-26T01:41:12.476Z,526.83
2022-11-26T01:43:23.509Z,408.55
2022-11-26T01:45:25.133Z,377.10
2022-11-26T01:47:29.985Z,480.65
2022-11-26T01:49:34.766Z,460.42
2022-11-26T01:51:36.330Z,467.33
2022-11-26T01:54:00.185Z,436.42
2022-11-26T01:56:21.883Z,391.98
2022-11-26T01:58:39.538Z,393.50
2022-11-26T02:00:42.254Z,329.20
2022-11-26T02:02:44.039Z,360.60
2022-11-26T02:04:55.265Z,406.42
2022-11-26T02:06:57.569Z,365.15
2022-11-26T02:09:02.038Z,350.77
2022-11-26T02:11:15.429Z,346.10
2022-11-26T02:13:16.986Z,351.10
2022-11-26T02:15:18.666Z,356.75
2022-11-26T02:17:36.266Z,367.70
2022-11-26T02:20:22.999Z,310.80
2022-11-26T02:22:30.657Z,284.67
2022-11-26T02:24:48.998Z,304.05
2022-11-26T02:27:09.262Z,295.00
2022-11-26T02:29:37.046Z,293.63
2022-11-26T02:32:06.377Z,337.33
2022-11-26T02:34:15.026Z,330.33
2022-11-26T02:36:31.745Z,316.00
2022-11-26T02:38:38.044Z,295.25
2022-11-26T02:40:39.679Z,316.35
2022-11-26T02:42:41.374Z,306.20
2022-11-26T02:44:44.904Z,313.70
2022-11-26T02:46:49.456Z,304.55
2022-11-26T02:48:52.814Z,330.45
2022-11-26T02:51:00.554Z,329.98
2022-11-26T02:53:03.881Z,340.52
2022-11-26T02:55:07.687Z,342.17
2022-11-26T02:57:13.753Z,343.88
2022-11-26T02:59:16.278Z,671.20
2022-11-26T03:01:29.515Z,356.90
2022-11-26T03:03:35.297Z,288.23
2022-11-26T03:05:40.586Z,283.95
2022-11-26T03:07:43.577Z,269.10
2022-11-26T03:09:57.522Z,253.85
2022-11-26T03:11:59.079Z,270.48
2022-11-26T03:14:00.598Z,276.88
2022-11-26T03:16:02.108Z,329.73
2022-11-26T03:18:03.714Z,516.47
2022-11-26T03:20:05.960Z,293.17
2022-11-26T03:22:08.096Z,259.63
2022-11-26T03:24:09.600Z,277.05
2022-11-26T03:26:11.028Z,288.92
2022-11-26T03:28:12.656Z,256.38
2022-11-26T03:30:14.449Z,255.15
2022-11-26T03:32:15.923Z,252.75
2022-11-26T03:34:17.450Z,246.75
2022-11-26T03:36:18.930Z,253.77
2022-11-26T03:38:20.442Z,239.10
2022-11-26T03:40:22.026Z,231.00
2022-11-26T03:42:23.604Z,236.90
2022-11-26T03:44:25.157Z,265.73
2022-11-26T03:46:26.632Z,263.40
2022-11-26T03:48:28.105Z,255.45
2022-11-26T03:50:29.545Z,500.85
2022-11-26T03:52:31.015Z,349.58
2022-11-26T03:54:32.554Z,306.27
2022-11-26T03:56:33.970Z,272.40
2022-11-26T03:58:35.569Z,264.98
2022-11-26T04:00:37.098Z,258.52
2022-11-26T04:02:38.623Z,253.35
2022-11-26T04:04:40.392Z,272.30
2022-11-26T04:06:42.115Z,265.58
2022-11-26T04:08:44.014Z,259.52
2022-11-26T04:10:45.458Z,278.60
2022-11-26T04:12:46.901Z,267.65
2022-11-26T04:14:48.374Z,269.05
2022-11-26T04:16:49.870Z,260.73
2022-11-26T04:18:51.431Z,271.92
2022-11-26T04:20:53.575Z,264.30
2022-11-26T04:22:55.216Z,260.13
2022-11-26T04:24:56.711Z,270.02
2022-11-26T04:26:58.167Z,310.52
2022-11-26T04:28:59.597Z,272.23
2022-11-26T04:31:01.173Z,280.05
2022-11-26T04:33:02.657Z,257.98
2022-11-26T04:35:04.447Z,258.52
2022-11-26T04:37:05.912Z,303.33
2022-11-26T04:39:07.498Z,261.63
2022-11-26T04:41:09.039Z,286.88
2022-11-26T04:43:10.497Z,291.23
2022-11-26T04:45:11.940Z,315.35
2022-11-26T04:47:13.427Z,276.48
2022-11-26T04:49:15.191Z,281.80
2022-11-26T04:51:16.655Z,271.50
2022-11-26T04:53:21.839Z,280.10
2022-11-26T04:55:23.835Z,269.50
2022-11-26T04:57:26.559Z,255.18
2022-11-26T04:59:28.162Z,246.05
2022-11-26T05:01:29.700Z,286.42
2022-11-26T05:03:31.325Z,306.17
2022-11-26T05:05:32.808Z,292.77
2022-11-26T05:07:34.713Z,282.15
2022-11-26T05:09:36.214Z,279.17
2022-11-26T05:11:37.741Z,268.73
2022-11-26T05:13:39.239Z,265.35
2022-11-26T05:15:40.798Z,271.60
2022-11-26T05:17:42.254Z,258.80
2022-11-26T05:19:43.991Z,252.45
2022-11-26T05:21:45.512Z,239.32
2022-11-26T05:23:46.975Z,260.48
2022-11-26T05:25:50.413Z,248.60
2022-11-26T05:27:51.895Z,266.63
2022-11-26T05:29:53.378Z,271.60
2022-11-26T05:31:54.877Z,255.52
2022-11-26T05:33:56.510Z,251.65
2022-11-26T05:35:58.001Z,263.17
2022-11-26T05:37:59.498Z,243.77
2022-11-26T05:40:00.995Z,264.75
2022-11-26T05:42:07.679Z,247.27
2022-11-26T05:44:10.610Z,241.98
2022-11-26T05:46:16.314Z,230.63
2022-11-26T05:48:17.857Z,222.48
2022-11-26T05:50:19.426Z,228.98
2022-11-26T05:52:21.647Z,252.48
2022-11-26T05:54:23.134Z,248.10
2022-11-26T05:56:24.907Z,241.80
2022-11-26T05:58:26.572Z,224.30
2022-11-26T06:00:28.062Z,215.07
2022-11-26T06:02:29.578Z,226.30
2022-11-26T06:04:31.179Z,231.55
2022-11-26T06:06:32.693Z,229.05
2022-11-26T06:08:34.284Z,234.43
2022-11-26T06:10:35.770Z,235.35
2022-11-26T06:12:37.295Z,226.10
2022-11-26T06:14:42.949Z,205.85
2022-11-26T06:16:44.999Z,206.05
2022-11-26T06:18:46.575Z,223.00
2022-11-26T06:20:48.046Z,202.32
2022-11-26T06:22:49.500Z,201.30
2022-11-26T06:24:50.969Z,191.13
2022-11-26T06:26:52.380Z,187.25
2022-11-26T06:28:54.096Z,191.18
2022-11-26T06:30:55.529Z,191.40
2022-11-26T06:32:57.099Z,185.48
2022-11-26T06:34:58.589Z,187.40
2022-11-26T06:37:00.041Z,199.07
2022-11-26T06:39:01.501Z,204.45
2022-11-26T06:41:07.795Z,238.00
2022-11-26T06:43:09.347Z,205.65
2022-11-26T06:45:11.998Z,198.30
2022-11-26T06:47:14.138Z,192.27
2022-11-26T06:49:15.653Z,200.95
2022-11-26T06:51:20.488Z,228.88
2022-11-26T06:53:22.007Z,215.60
2022-11-26T06:55:23.445Z,237.95
2022-11-26T06:57:24.876Z,218.13
2022-11-26T06:59:26.388Z,204.40
2022-11-26T07:01:28.116Z,232.38
2022-11-26T07:03:33.373Z,215.27
2022-11-26T07:05:36.469Z,244.63
2022-11-26T07:07:38.656Z,264.02
2022-11-26T07:09:40.566Z,205.85
2022-11-26T07:11:42.748Z,201.90
2022-11-26T07:13:44.946Z,206.68
2022-11-26T07:15:46.513Z,226.65
2022-11-26T07:17:47.985Z,274.40
2022-11-26T07:19:49.488Z,225.43
2022-11-26T07:21:50.930Z,221.15
2022-11-26T07:23:52.519Z,233.05
2022-11-26T07:25:53.958Z,216.38
2022-11-26T07:27:55.576Z,182.48
2022-11-26T07:29:57.013Z,132.05
2022-11-26T07:31:58.540Z,109.65
2022-11-26T07:34:00.016Z,101.25
2022-11-26T07:36:03.584Z,99.75
2022-11-26T07:38:05.076Z,96.15
2022-11-26T07:40:07.754Z,94.28
2022-11-26T07:42:09.149Z,99.47
2022-11-26T07:44:14.463Z,95.65
2022-11-26T07:46:19.889Z,109.35
2022-11-26T07:48:21.327Z,122.97
2022-11-26T07:50:22.827Z,114.18
2022-11-26T07:52:24.339Z,106.45
2022-11-26T07:54:25.776Z,111.20
2022-11-26T07:56:27.397Z,103.35
2022-11-26T07:58:28.845Z,104.70
2022-11-26T08:00:30.309Z,94.05
2022-11-26T08:02:31.844Z,100.47
2022-11-26T08:04:34.029Z,110.78
2022-11-26T08:06:35.567Z,103.43
2022-11-26T08:08:37.397Z,109.07
2022-11-26T08:10:40.028Z,99.70
2022-11-26T08:12:41.513Z,103.85
2022-11-26T08:14:43.262Z,102.18
2022-11-26T08:16:44.919Z,98.38
2022-11-26T08:18:46.380Z,99.22
2022-11-26T08:20:58.024Z,95.03
2022-11-26T08:22:59.477Z,95.13
2022-11-26T08:25:00.956Z,94.22
2022-11-26T08:27:08.788Z,97.40
2022-11-26T08:29:10.226Z,98.55
2022-11-26T08:31:14.074Z,102.28
2022-11-26T08:33:15.830Z,80.03
2022-11-26T08:35:17.402Z,83.90
2022-11-26T08:37:21.957Z,97.50
2022-11-26T08:39:23.532Z,125.05
2022-11-26T08:41:25.412Z,113.60
2022-11-26T08:43:45.100Z,133.85
2022-11-26T08:45:55.792Z,118.53
2022-11-26T08:47:57.245Z,76.23
2022-11-26T08:49:58.697Z,103.03
2022-11-26T08:52:00.469Z,112.55
2022-11-26T08:54:02.542Z,115.90
2022-11-26T08:56:06.869Z,95.07
2022-11-26T08:58:08.491Z,106.35
2022-11-26T09:00:10.679Z,102.38
2022-11-26T09:02:17.369Z,90.18
2022-11-26T09:04:23.005Z,100.60
2022-11-26T09:06:26.058Z,95.68
2022-11-26T09:08:27.935Z,96.72
2022-11-26T09:10:29.374Z,86.43
2022-11-26T09:12:30.916Z,99.95
2022-11-26T09:14:38.208Z,136.57
2022-11-26T09:16:43.840Z,95.53
2022-11-26T09:18:45.349Z,82.30
2022-11-26T09:20:46.822Z,93.53
2022-11-26T09:22:48.306Z,105.95
2022-11-26T09:24:49.751Z,227.77
2022-11-26T09:26:51.927Z,157.68
2022-11-26T09:28:53.542Z,136.93
2022-11-26T09:30:58.790Z,118.85
2022-11-26T09:33:00.302Z,94.53
2022-11-26T09:35:01.806Z,82.18
2022-11-26T09:37:03.391Z,100.63
2022-11-26T09:39:29.806Z,95.38
2022-11-26T09:41:50.443Z,98.63
2022-11-26T09:44:22.585Z,91.72
2022-11-26T09:46:40.959Z,75.25
2022-11-26T09:48:55.474Z,81.30
2022-11-26T09:51:04.866Z,79.65
2022-11-26T09:53:21.261Z,72.15
2022-11-26T09:55:26.294Z,78.75
2022-11-26T09:57:35.555Z,75.85
2022-11-26T09:59:39.467Z,69.82
2022-11-26T10:01:42.336Z,86.22
2022-11-26T10:03:44.446Z,83.53
2022-11-26T10:05:55.873Z,70.45
2022-11-26T10:08:36.129Z,80.80
2022-11-26T10:11:02.495Z,68.70
2022-11-26T10:13:20.907Z,88.40
2022-11-26T10:16:11.537Z,111.13
2022-11-26T10:18:44.549Z,65.07
2022-11-26T10:21:18.206Z,75.63
2022-11-26T10:23:40.332Z,67.00
2022-11-26T10:25:51.540Z,107.53
2022-11-26T10:27:55.691Z,119.97
2022-11-26T10:30:07.340Z,134.93
2022-11-26T10:32:16.206Z,124.45
2022-11-26T10:34:20.939Z,57.40
2022-11-26T10:36:35.238Z,72.20
2022-11-26T10:38:37.167Z,140.85
2022-11-26T10:40:38.666Z,99.93
2022-11-26T10:42:47.673Z,89.03
2022-11-26T10:44:52.003Z,102.97
2022-11-26T10:46:53.510Z,71.18
2022-11-26T10:49:15.584Z,58.95
2022-11-26T10:51:26.703Z,55.60
2022-11-26T10:53:31.167Z,125.40
2022-11-26T10:55:41.569Z,140.35
2022-11-26T10:57:47.746Z,346.95
2022-11-26T10:59:52.017Z,271.75
2022-11-26T11:01:57.621Z,358.58
2022-11-26T11:04:08.618Z,91.32
2022-11-26T11:06:43.445Z,69.32
2022-11-26T11:08:47.114Z,68.10
2022-11-26T11:11:00.382Z,116.95
2022-11-26T11:13:12.755Z,102.43
2022-11-26T11:15:23.873Z,94.32
2022-11-26T11:17:35.359Z,97.07
2022-11-26T11:19:36.846Z,95.70
2022-11-26T11:21:43.840Z,106.55
2022-11-26T11:26:17.796Z,114.30
2022-11-26T11:28:21.702Z,96.97
2022-11-26T11:30:28.832Z,98.18
2022-11-26T11:32:37.019Z,72.00
2022-11-26T11:34:42.570Z,71.88
2022-11-26T11:36:53.114Z,68.32
2022-11-26T11:39:00.183Z,89.97
2022-11-26T11:41:04.984Z,91.93
2022-11-26T11:43:07.817Z,94.47
2022-11-26T11:45:23.459Z,96.50
2022-11-26T11:47:36.559Z,99.20
2022-11-26T11:50:15.684Z,92.32
2022-11-26T11:52:38.741Z,102.60
2022-11-26T11:55:21.951Z,90.22
2022-11-26T11:57:32.579Z,89.60
2022-11-26T12:00:18.096Z,91.03
2022-11-26T12:03:01.355Z,94.88
2022-11-26T12:05:27.325Z,104.43
2022-11-26T12:07:41.288Z,121.40
2022-11-26T12:10:03.239Z,121.07
2022-11-26T12:12:15.853Z,115.25
2022-11-26T12:14:34.778Z,131.88
2022-11-26T12:16:40.363Z,96.65
2022-11-26T12:18:57.921Z,137.48
2022-11-26T12:21:07.763Z,118.07
2022-11-26T12:25:35.321Z,135.43
2022-11-26T12:27:58.041Z,145.15
2022-11-26T12:30:08.678Z,141.10
2022-11-26T12:32:34.054Z,138.57
2022-11-26T12:34:41.558Z,158.05
2022-11-26T12:36:51.129Z,202.65
2022-11-26T12:39:02.244Z,202.93
2022-11-26T12:41:11.295Z,200.15
2022-11-26T12:43:25.791Z,109.22
2022-11-26T12:45:42.523Z,145.70
2022-11-26T12:47:53.587Z,152.25
2022-11-26T12:50:22.791Z,155.77
2022-11-26T12:52:47.236Z,179.95
2022-11-26T12:55:25.207Z,185.35
2022-11-26T12:57:38.552Z,179.05
2022-11-26T12:59:59.901Z,201.45
2022-11-26T13:02:18.331Z,198.52
2022-11-26T13:04:37.288Z,181.30
2022-11-26T13:07:07.040Z,224.77
2022-11-26T13:09:27.782Z,228.13
2022-11-26T13:11:52.700Z,304.40
2022-11-26T13:14:17.682Z,214.88
2022-11-26T13:16:36.926Z,205.95
2022-11-26T13:18:43.908Z,224.75
2022-11-26T13:21:11.683Z,249.35
2022-11-26T13:23:25.062Z,265.52
2022-11-26T13:25:55.630Z,234.88
2022-11-26T13:28:09.245Z,280.73
2022-11-26T13:30:21.498Z,336.45
2022-11-26T13:32:34.933Z,332.10
2022-11-26T13:34:41.871Z,329.33
2022-11-26T13:37:10.469Z,230.45
2022-11-26T13:39:31.100Z,358.88
2022-11-26T13:41:54.587Z,334.15
2022-11-26T13:44:27.470Z,372.90
2022-11-26T13:46:41.361Z,387.20
2022-11-26T13:49:02.377Z,461.55
2022-11-26T13:51:21.466Z,440.63
2022-11-26T13:53:28.672Z,394.48
2022-11-26T13:56:00.647Z,414.25
2022-11-26T13:58:06.268Z,463.33
2022-11-26T14:00:09.280Z,525.78
2022-11-26T14:02:34.550Z,535.97
2022-11-26T14:04:44.930Z,470.40
2022-11-26T14:07:04.797Z,586.78
2022-11-26T14:09:06.782Z,515.03
2022-11-26T14:11:09.164Z,465.67
2022-11-26T14:13:12.497Z,567.08
2022-11-26T14:15:42.024Z,602.03
2022-11-26T14:17:56.942Z,404.35
2022-11-26T14:19:59.696Z,533.70
2022-11-26T14:22:03.687Z,426.30
2022-11-26T14:24:05.362Z,466.90
2022-11-26T14:26:09.916Z,214.50
2022-11-26T14:28:11.390Z,439.80
2022-11-26T14:30:16.813Z,513.50
2022-11-26T14:32:22.282Z,322.23
2022-11-26T14:34:33.800Z,350.00
2022-11-26T14:36:35.243Z,458.83
2022-11-26T14:38:36.694Z,432.50
2022-11-26T14:40:38.784Z,435.08
2022-11-26T14:42:41.135Z,452.40
2022-11-26T14:44:42.850Z,354.75
2022-11-26T14:46:48.832Z,304.55
2022-11-26T14:48:50.989Z,278.98
2022-11-26T14:50:54.751Z,297.75
2022-11-26T14:53:01.189Z,269.60
2022-11-26T14:55:16.311Z,297.45
2022-11-26T14:57:26.172Z,322.55
2022-11-26T14:59:27.775Z,393.05
2022-11-26T15:01:29.759Z,320.83
2022-11-26T15:03:31.542Z,305.73
2022-11-26T15:05:35.412Z,672.78
2022-11-26T15:07:37.072Z,353.70
2022-11-26T15:09:38.578Z,327.95
2022-11-26T15:11:45.018Z,317.30
2022-11-26T15:13:47.221Z,287.98
2022-11-26T15:15:53.476Z,297.98
2022-11-26T15:18:02.531Z,313.50
2022-11-26T15:20:08.424Z,275.15
2022-11-26T15:22:33.258Z,260.92
2022-11-26T15:24:35.219Z,244.90
2022-11-26T15:26:36.929Z,276.70
2022-11-26T15:28:40.938Z,279.38
2022-11-26T15:30:59.485Z,327.88
2022-11-26T15:33:13.153Z,220.93
2022-11-26T15:35:16.256Z,287.92
2022-11-26T15:37:17.832Z,288.52
2022-11-26T15:39:25.336Z,272.60
2022-11-26T15:41:27.010Z,324.63
2022-11-26T15:43:35.865Z,319.48
2022-11-26T15:45:40.110Z,233.97
2022-11-26T15:47:46.705Z,309.98
2022-11-26T15:49:54.828Z,303.63
2022-11-26T15:51:59.976Z,286.83
2022-11-26T15:54:03.226Z,288.02
2022-11-26T15:56:07.900Z,326.25
2022-11-26T15:58:15.938Z,306.75
2022-11-26T16:00:34.071Z,306.20
2022-11-26T16:02:38.795Z,293.00
2022-11-26T16:04:45.407Z,280.33
2022-11-26T16:06:46.909Z,261.08
2022-11-26T16:09:02.457Z,265.00
2022-11-26T16:11:03.856Z,266.48
2022-11-26T16:13:29.602Z,231.70
2022-11-26T16:15:31.146Z,240.50
2022-11-26T16:17:32.868Z,267.63
2022-11-26T16:19:34.444Z,246.02
2022-11-26T16:21:37.296Z,506.83
2022-11-26T16:23:39.043Z,491.48
2022-11-26T16:25:40.519Z,325.20
2022-11-26T16:27:45.233Z,327.10
2022-11-26T16:29:49.738Z,184.07
2022-11-26T16:31:51.497Z,153.23
2022-11-26T16:33:52.959Z,154.80
2022-11-26T16:35:54.980Z,129.85
2022-11-26T16:37:56.730Z,104.82
2022-11-26T16:40:04.394Z,101.72
2022-11-26T16:42:14.199Z,106.40
2022-11-26T16:46:19.723Z,80.70
2022-11-26T16:48:23.178Z,80.20
2022-11-26T16:50:26.956Z,83.30
2022-11-26T16:52:28.914Z,74.68
2022-11-26T16:54:30.490Z,64.35
2022-11-26T16:56:37.462Z,78.78
2022-11-26T16:58:39.007Z,66.13
2022-11-26T17:00:41.101Z,61.88
2022-11-26T17:02:43.018Z,70.57
2022-11-26T17:04:45.642Z,63.63
2022-11-26T17:06:47.188Z,69.65
2022-11-26T17:08:50.018Z,63.22
2022-11-26T17:10:51.761Z,64.30
2022-11-26T17:12:53.234Z,80.40
2022-11-26T17:14:54.758Z,63.03
2022-11-26T17:16:57.184Z,74.13
2022-11-26T17:18:58.942Z,71.38
2022-11-26T17:21:00.370Z,88.40
2022-11-26T17:23:02.105Z,66.20
2022-11-26T17:25:04.058Z,67.43
2022-11-26T17:27:14.334Z,62.45
2022-11-26T17:29:15.825Z,58.17
2022-11-26T17:31:18.004Z,69.28
2022-11-26T17:33:19.652Z,74.60
2022-11-26T17:35:21.095Z,85.22
2022-11-26T17:37:28.360Z,83.53
2022-11-26T17:39:29.970Z,66.43
2022-11-26T17:41:31.405Z,80.18
2022-11-26T17:43:32.835Z,67.80
2022-11-26T17:45:34.396Z,72.10
2022-11-26T17:47:35.880Z,80.20
2022-11-26T17:49:37.835Z,71.15
2022-11-26T17:51:41.710Z,91.70
2022-11-26T17:53:43.862Z,56.22
2022-11-26T17:55:45.346Z,70.00
2022-11-26T17:57:46.870Z,89.07
2022-11-26T17:59:48.441Z,66.15
2022-11-26T18:01:50.046Z,88.35
2022-11-26T18:03:52.794Z,89.30
2022-11-26T18:05:54.286Z,69.25
2022-11-26T18:07:55.824Z,61.08
2022-11-26T18:09:57.940Z,69.35
2022-11-26T18:12:00.277Z,85.63
2022-11-26T18:14:02.924Z,86.85
2022-11-26T18:16:04.603Z,70.40
2022-11-26T18:18:07.474Z,70.95
2022-11-26T18:20:10.166Z,66.28
2022-11-26T18:22:16.761Z,71.78
2022-11-26T18:24:18.330Z,61.63
2022-11-26T18:26:19.770Z,77.93
2022-11-26T18:28:21.314Z,60.50
2022-11-26T18:30:23.950Z,51.42
2022-11-26T18:32:25.613Z,53.60
2022-11-26T18:34:27.208Z,44.70
2022-11-26T18:36:28.705Z,46.83
2022-11-26T18:38:32.989Z,49.25
2022-11-26T18:40:34.461Z,44.85
2022-11-26T18:42:37.807Z,53.95
2022-11-26T18:44:39.914Z,57.95
2022-11-26T18:46:41.350Z,52.40
2022-11-26T18:48:45.821Z,49.45
2022-11-26T18:50:58.842Z,55.67
2022-11-26T18:53:00.342Z,48.30
2022-11-26T18:55:04.819Z,39.47
2022-11-26T18:57:06.297Z,47.30
2022-11-26T18:59:09.522Z,50.53
2022-11-26T19:01:22.626Z,47.97
2022-11-26T19:03:25.918Z,69.90
2022-11-26T19:05:27.401Z,84.90
2022-11-26T19:07:28.985Z,75.32
2022-11-26T19:09:30.441Z,67.72
2022-11-26T19:11:32.166Z,73.50
2022-11-26T19:13:33.606Z,124.07
2022-11-26T19:15:35.402Z,97.78
2022-11-26T19:17:37.231Z,86.45
2022-11-26T19:19:39.286Z,81.35
2022-11-26T19:21:42.075Z,78.07
2022-11-26T19:23:43.602Z,118.03
2022-11-26T19:25:45.721Z,79.57
2022-11-26T19:27:48.657Z,96.68
2022-11-26T19:29:50.078Z,79.35
2022-11-26T19:31:52.098Z,74.75
2022-11-26T19:33:55.268Z,76.43
2022-11-26T19:35:57.101Z,94.03
2022-11-26T19:37:58.642Z,83.65
2022-11-26T19:40:00.115Z,80.40
2022-11-26T19:42:01.699Z,87.68
2022-11-26T19:44:05.384Z,80.15
2022-11-26T19:46:12.567Z,116.28
2022-11-26T19:48:14.677Z,85.53
2022-11-26T19:50:16.761Z,81.63
2022-11-26T19:52:18.287Z,91.88
2022-11-26T19:54:19.840Z,127.15
2022-11-26T19:56:24.706Z,90.45
2022-11-26T19:58:27.374Z,99.28
2022-11-26T20:00:28.778Z,92.78
2022-11-26T20:02:30.439Z,102.07
2022-11-26T20:04:31.905Z,102.47
2022-11-26T20:06:35.356Z,103.13
2022-11-26T20:08:38.550Z,112.88
2022-11-26T20:10:40.219Z,101.72
2022-11-26T20:12:41.651Z,98.57
2022-11-26T20:14:43.124Z,98.60
2022-11-26T20:16:44.787Z,91.93
2022-11-26T20:18:47.605Z,93.22
2022-11-26T20:20:59.996Z,115.20
2022-11-26T20:23:01.606Z,125.38
2022-11-26T20:25:03.871Z,113.78
2022-11-26T20:27:05.460Z,108.25
2022-11-26T20:29:10.271Z,96.80
2022-11-26T20:31:13.021Z,107.95
2022-11-26T20:33:16.242Z,99.03
2022-11-26T20:35:17.886Z,101.05
2022-11-26T20:37:19.531Z,116.10
2022-11-26T20:39:22.615Z,116.00
2022-11-26T20:41:26.401Z,138.10
2022-11-26T20:43:27.895Z,116.78
2022-11-26T20:45:29.340Z,105.80
2022-11-26T20:47:31.060Z,129.30
2022-11-26T20:49:36.030Z,103.97
2022-11-26T20:51:39.495Z,119.60
2022-11-26T20:53:42.748Z,100.93
2022-11-26T20:55:54.782Z,141.02
2022-11-26T20:57:56.249Z,196.40
2022-11-26T20:59:57.755Z,127.45
2022-11-26T21:01:59.262Z,137.88
2022-11-26T21:04:01.247Z,188.73
2022-11-26T21:06:03.300Z,188.07
2022-11-26T21:08:04.872Z,112.90
2022-11-26T21:10:08.147Z,120.63
2022-11-26T21:12:09.718Z,113.85
2022-11-26T21:14:14.955Z,110.45
2022-11-26T21:16:17.004Z,108.45
2022-11-26T21:18:18.779Z,103.47
2022-11-26T21:20:20.185Z,96.15
2022-11-26T21:22:21.715Z,110.30
2022-11-26T21:24:23.454Z,106.50
2022-11-26T21:26:26.367Z,120.32
2022-11-26T21:28:27.786Z,96.43
2022-11-26T21:30:29.329Z,96.95
2022-11-26T21:32:30.942Z,89.45
2022-11-26T21:34:32.997Z,113.50
2022-11-26T21:36:36.346Z,100.03
2022-11-26T21:38:38.488Z,94.00
2022-11-26T21:40:39.979Z,134.60
2022-11-26T21:42:41.536Z,204.73
2022-11-26T21:44:43.056Z,183.00
2022-11-26T21:46:44.561Z,135.73
2022-11-26T21:48:46.157Z,136.20
2022-11-26T21:50:47.572Z,152.38
2022-11-26T21:52:49.063Z,100.55
2022-11-26T21:54:50.705Z,91.40
2022-11-26T21:56:53.075Z,93.03
2022-11-26T21:58:59.182Z,109.70
2022-11-26T22:01:00.641Z,111.35
2022-11-26T22:03:04.078Z,124.55
2022-11-26T22:05:08.858Z,124.30
2022-11-26T22:07:10.330Z,120.40
2022-11-26T22:09:12.658Z,111.70
2022-11-26T22:11:19.988Z,100.78
2022-11-26T22:13:21.464Z,124.28
2022-11-26T22:15:22.937Z,105.43
2022-11-26T22:17:24.417Z,130.13
2022-11-26T22:19:25.964Z,111.50
2022-11-26T22:21:36.475Z,81.32
2022-11-26T22:23:38.070Z,71.28
2022-11-26T22:25:39.491Z,75.20
2022-11-26T22:27:41.034Z,68.82
2022-11-26T22:29:42.611Z,73.35
2022-11-26T22:31:44.902Z,73.28
2022-11-26T22:33:47.040Z,70.40
2022-11-26T22:35:48.520Z,74.63
2022-11-26T22:37:50.043Z,73.05
2022-11-26T22:39:53.962Z,80.82
2022-11-26T22:41:55.572Z,79.93
2022-11-26T22:43:59.649Z,75.97
2022-11-26T22:46:05.888Z,92.75
2022-11-26T22:48:07.337Z,85.68
2022-11-26T22:50:09.192Z,86.40
2022-11-26T22:52:10.979Z,83.30
2022-11-26T22:54:14.429Z,94.00
2022-11-26T22:56:16.814Z,92.00
2022-11-26T22:58:19.467Z,88.70
2022-11-26T23:00:43.712Z,95.18
2022-11-26T23:02:45.252Z,85.68
2022-11-26T23:04:46.854Z,95.78
2022-11-26T23:06:48.390Z,103.72
2022-11-26T23:08:50.497Z,114.38
2022-11-26T23:10:51.989Z,103.07
2022-11-26T23:12:53.436Z,104.20
2022-11-26T23:14:54.905Z,105.45
2022-11-26T23:16:56.359Z,97.70
2022-11-26T23:18:58.044Z,99.35
2022-11-26T23:21:07.868Z,105.57
2022-11-26T23:23:09.664Z,101.80
2022-11-26T23:25:11.274Z,117.43
2022-11-26T23:27:12.697Z,122.10
2022-11-26T23:29:14.407Z,132.68
2022-11-26T23:31:21.497Z,127.85
2022-11-26T23:33:22.996Z,139.57
2022-11-26T23:35:24.499Z,127.53
2022-11-26T23:37:25.933Z,145.85
2022-11-26T23:39:27.381Z,129.68
2022-11-26T23:41:28.894Z,136.75
2022-11-26T23:43:32.104Z,131.90
2022-11-26T23:45:33.580Z,151.75
2022-11-26T23:47:36.420Z,146.55
2022-11-26T23:49:38.274Z,156.75
2022-11-26T23:51:39.987Z,167.10
2022-11-26T23:53:43.098Z,181.45
2022-11-26T23:55:44.620Z,175.70
2022-11-26T23:57:46.073Z,173.45
2022-11-26T23:59:47.514Z,162.23
